createdAt,value
2023-03-21T00:00:41.532Z,52.30
2023-03-21T00:03:09.182Z,52.72
2023-03-21T00:05:41.342Z,49.63
2023-03-21T00:08:08.946Z,54.60
2023-03-21T00:10:42.253Z,54.80
2023-03-21T00:13:15.136Z,57.40
2023-03-21T00:16:05.606Z,55.90
2023-03-21T00:18:46.494Z,50.38
2023-03-21T00:21:39.643Z,59.25
2023-03-21T00:24:03.523Z,58.58
2023-03-21T00:26:30.441Z,60.13
2023-03-21T00:28:57.321Z,63.28
2023-03-21T00:31:24.354Z,59.75
2023-03-21T00:33:51.290Z,48.00
2023-03-21T00:36:18.434Z,57.92
2023-03-21T00:38:45.988Z,53.17
2023-03-21T00:41:26.395Z,60.92
2023-03-21T00:44:04.184Z,55.67
2023-03-21T00:46:42.796Z,64.28
2023-03-21T00:49:12.423Z,59.40
2023-03-21T00:51:39.291Z,52.88
2023-03-21T00:54:06.284Z,52.30
2023-03-21T00:56:33.164Z,64.78
2023-03-21T00:59:00.450Z,57.92
2023-03-21T01:01:31.952Z,65.00
2023-03-21T01:04:07.779Z,52.97
2023-03-21T01:06:40.426Z,63.25
2023-03-21T01:09:11.601Z,53.47
2023-03-21T01:11:38.458Z,61.47
2023-03-21T01:14:20.927Z,64.97
2023-03-21T01:16:50.931Z,58.17
2023-03-21T01:19:50.806Z,55.97
2023-03-21T01:22:06.812Z,62.65
2023-03-21T01:24:35.564Z,51.80
2023-03-21T01:27:04.508Z,56.47
2023-03-21T01:29:31.422Z,52.05
2023-03-21T01:31:58.223Z,37.42
2023-03-21T01:34:25.104Z,49.65
2023-03-21T01:36:52.056Z,43.05
2023-03-21T01:39:19.062Z,44.83
2023-03-21T01:41:45.988Z,40.95
2023-03-21T01:44:22.042Z,44.53
2023-03-21T01:47:07.378Z,38.75
2023-03-21T01:49:40.967Z,41.65
2023-03-21T02:06:41.601Z,38.53
2023-03-21T02:09:13.602Z,37.00
2023-03-21T02:12:18.891Z,31.35
2023-03-21T02:14:48.967Z,31.67
2023-03-21T02:18:07.343Z,35.13
2023-03-21T02:20:54.539Z,34.15
2023-03-21T02:24:03.212Z,30.20
2023-03-21T02:27:04.137Z,31.70
2023-03-21T02:30:29.397Z,33.90
2023-03-21T02:33:04.600Z,29.50
2023-03-21T02:36:05.671Z,29.08
2023-03-21T02:38:49.087Z,27.85
2023-03-21T02:41:25.372Z,27.23
2023-03-21T02:44:17.222Z,29.38
2023-03-21T02:47:06.530Z,29.80
2023-03-21T02:49:46.065Z,27.83
2023-03-21T02:52:31.760Z,28.60
2023-03-21T02:55:05.581Z,29.15
2023-03-21T02:57:42.084Z,29.00
2023-03-21T03:00:16.590Z,29.38
2023-03-21T03:02:44.292Z,31.42
2023-03-21T03:05:22.260Z,34.67
2023-03-21T03:08:01.749Z,34.38
2023-03-21T03:10:42.001Z,36.93
2023-03-21T03:13:08.812Z,36.60
2023-03-21T03:15:48.123Z,38.58
2023-03-21T03:18:32.363Z,44.60
2023-03-21T03:21:20.212Z,37.80
2023-03-21T03:23:53.597Z,39.35
2023-03-21T03:26:39.800Z,37.38
2023-03-21T03:29:09.980Z,33.22
2023-03-21T03:31:41.456Z,40.45
2023-03-21T03:34:15.210Z,41.38
2023-03-21T03:36:47.690Z,34.55
2023-03-21T03:39:16.412Z,35.17
2023-03-21T03:42:18.372Z,36.77
2023-03-21T03:44:39.191Z,39.00
2023-03-21T03:47:10.702Z,31.60
2023-03-21T03:49:50.278Z,42.97
2023-03-21T03:52:29.527Z,41.83
2023-03-21T03:54:56.478Z,43.55
2023-03-21T03:57:26.279Z,31.27
2023-03-21T03:59:53.375Z,41.88
2023-03-21T04:02:20.530Z,43.17
2023-03-21T04:04:47.688Z,43.00
2023-03-21T04:07:14.610Z,38.70
2023-03-21T04:09:44.980Z,44.30
2023-03-21T04:12:13.096Z,40.03
2023-03-21T04:14:45.750Z,41.70
2023-03-21T04:17:14.135Z,41.90
2023-03-21T04:19:41.015Z,44.35
2023-03-21T04:22:08.158Z,38.58
2023-03-21T04:24:37.491Z,43.17
2023-03-21T04:27:05.905Z,42.88
2023-03-21T04:29:33.363Z,46.00
2023-03-21T04:32:01.399Z,41.33
2023-03-21T04:34:28.490Z,44.72
2023-03-21T04:36:56.089Z,43.35
2023-03-21T04:39:24.689Z,37.40
2023-03-21T04:41:51.643Z,37.20
2023-03-21T04:44:18.723Z,36.55
2023-03-21T04:46:45.717Z,33.03
2023-03-21T04:49:12.775Z,38.45
2023-03-21T04:51:40.514Z,34.55
2023-03-21T04:56:36.101Z,37.53
2023-03-21T04:59:09.884Z,36.88
2023-03-21T05:01:36.855Z,44.03
2023-03-21T05:04:05.142Z,43.95
2023-03-21T05:06:32.166Z,45.47
2023-03-21T05:09:01.516Z,44.78
2023-03-21T05:11:30.916Z,41.20
2023-03-21T05:16:27.029Z,44.80
2023-03-21T05:18:55.488Z,39.67
2023-03-21T05:21:23.257Z,48.95
2023-03-21T05:23:58.476Z,38.63
2023-03-21T05:26:25.838Z,43.13
2023-03-21T05:28:53.109Z,43.95
2023-03-21T05:31:20.821Z,42.83
2023-03-21T05:33:48.431Z,41.42
2023-03-21T05:36:15.992Z,42.42
2023-03-21T05:38:45.689Z,41.95
2023-03-21T05:41:13.847Z,42.22
2023-03-21T05:43:41.004Z,37.92
2023-03-21T05:46:08.409Z,41.83
2023-03-21T05:48:35.511Z,42.95
2023-03-21T05:51:03.297Z,43.58
2023-03-21T05:53:30.695Z,41.47
2023-03-21T05:55:57.753Z,41.38
2023-03-21T05:58:24.624Z,40.78
2023-03-21T06:00:51.505Z,38.20
2023-03-21T06:03:18.532Z,39.70
2023-03-21T06:05:45.542Z,44.08
2023-03-21T06:08:12.972Z,40.03
2023-03-21T06:10:39.857Z,35.65
2023-03-21T06:13:06.728Z,41.40
2023-03-21T06:15:33.864Z,42.83
2023-03-21T06:18:00.727Z,41.17
2023-03-21T06:20:27.805Z,40.03
2023-03-21T06:22:54.699Z,36.38
2023-03-21T06:25:21.844Z,40.58
2023-03-21T06:27:48.755Z,40.28
2023-03-21T06:30:16.107Z,42.38
2023-03-21T06:32:42.927Z,35.67
2023-03-21T06:35:10.288Z,35.55
2023-03-21T06:37:38.197Z,37.60
2023-03-21T06:40:06.157Z,35.85
2023-03-21T06:42:33.155Z,35.88
2023-03-21T06:45:00.255Z,35.40
2023-03-21T06:47:27.105Z,33.05
2023-03-21T06:49:53.920Z,34.78
2023-03-21T06:52:20.798Z,34.05
2023-03-21T06:54:47.613Z,32.47
2023-03-21T06:57:14.465Z,25.95
2023-03-21T06:59:44.091Z,28.33
2023-03-21T07:02:11.508Z,31.65
2023-03-21T07:04:38.378Z,26.20
2023-03-21T07:07:05.206Z,27.83
2023-03-21T07:09:32.021Z,28.75
2023-03-21T07:11:58.888Z,25.23
2023-03-21T07:14:26.044Z,27.88
2023-03-21T07:16:52.932Z,27.83
2023-03-21T07:19:19.879Z,26.08
2023-03-21T07:21:46.777Z,25.80
2023-03-21T07:24:13.669Z,27.52
2023-03-21T07:26:41.054Z,23.08
2023-03-21T07:29:07.862Z,25.50
2023-03-21T07:31:35.660Z,25.40
2023-03-21T07:34:02.540Z,24.55
2023-03-21T07:36:29.361Z,22.60
2023-03-21T07:38:56.192Z,23.75
2023-03-21T07:41:23.078Z,22.50
2023-03-21T07:43:49.953Z,20.80
2023-03-21T07:46:16.823Z,24.65
2023-03-21T07:48:43.710Z,24.92
2023-03-21T07:51:10.683Z,21.80
2023-03-21T07:53:37.507Z,21.90
2023-03-21T07:56:04.786Z,23.40
2023-03-21T07:58:34.247Z,24.45
2023-03-21T08:03:29.924Z,23.05
2023-03-21T08:05:58.786Z,23.33
2023-03-21T08:08:25.710Z,22.88
2023-03-21T08:10:52.645Z,23.20
2023-03-21T08:13:19.577Z,23.23
2023-03-21T08:15:46.699Z,22.63
2023-03-21T08:18:13.568Z,20.38
2023-03-21T08:20:41.277Z,23.05
2023-03-21T08:23:08.158Z,20.40
2023-03-21T08:25:35.719Z,21.60
2023-03-21T08:28:03.367Z,20.73
2023-03-21T08:30:30.560Z,20.58
2023-03-21T08:33:01.185Z,19.50
2023-03-21T08:35:29.539Z,19.83
2023-03-21T08:37:56.444Z,19.40
2023-03-21T08:40:23.402Z,20.08
2023-03-21T08:42:50.490Z,18.73
2023-03-21T08:45:18.567Z,18.48
2023-03-21T08:47:46.500Z,17.92
2023-03-21T08:50:16.406Z,19.05
2023-03-21T08:52:43.455Z,18.00
2023-03-21T08:55:11.644Z,19.02
2023-03-21T08:57:38.839Z,17.63
2023-03-21T09:00:15.251Z,16.75
2023-03-21T09:02:43.393Z,17.35
2023-03-21T09:05:12.139Z,15.70
2023-03-21T09:07:40.288Z,16.17
2023-03-21T09:10:22.831Z,15.98
2023-03-21T09:12:52.830Z,18.33
2023-03-21T09:15:22.033Z,14.77
2023-03-21T09:17:52.752Z,16.33
2023-03-21T09:20:26.169Z,17.08
2023-03-21T09:22:53.924Z,15.63
2023-03-21T09:25:21.339Z,16.08
2023-03-21T09:27:48.787Z,14.25
2023-03-21T09:30:18.095Z,15.15
2023-03-21T09:32:49.516Z,17.55
2023-03-21T09:35:18.937Z,16.05
2023-03-21T09:37:50.074Z,16.98
2023-03-21T09:40:21.098Z,15.52
2023-03-21T09:43:03.836Z,16.25
2023-03-21T09:45:42.239Z,15.43
2023-03-21T09:48:26.372Z,16.95
2023-03-21T09:50:54.284Z,15.45
2023-03-21T09:53:35.771Z,15.57
2023-03-21T09:56:05.558Z,18.02
2023-03-21T09:58:46.880Z,17.05
2023-03-21T10:01:28.384Z,16.50
2023-03-21T10:03:57.006Z,17.23
2023-03-21T10:06:29.398Z,16.17
2023-03-21T10:09:07.336Z,17.92
2023-03-21T10:11:48.856Z,17.08
2023-03-21T10:14:29.771Z,17.00
2023-03-21T10:17:06.926Z,18.15
2023-03-21T10:19:33.742Z,16.73
2023-03-21T10:22:02.852Z,17.88
2023-03-21T10:24:33.423Z,17.08
2023-03-21T10:27:02.535Z,17.55
2023-03-21T10:29:43.663Z,20.45
2023-03-21T10:32:13.883Z,19.00
2023-03-21T10:37:28.685Z,18.50
2023-03-21T10:39:56.084Z,18.27
2023-03-21T10:42:29.319Z,18.20
2023-03-21T10:44:57.714Z,16.13
2023-03-21T10:47:31.772Z,17.63
2023-03-21T10:50:07.797Z,16.70
2023-03-21T10:52:37.436Z,16.60
2023-03-21T10:55:18.654Z,16.95
2023-03-21T10:57:47.260Z,16.80
2023-03-21T11:00:21.996Z,14.30
2023-03-21T11:02:51.636Z,14.07
2023-03-21T11:05:25.257Z,15.00
2023-03-21T11:08:04.792Z,13.18
2023-03-21T11:10:38.238Z,12.23
2023-03-21T11:13:18.519Z,11.40
2023-03-21T11:18:24.906Z,12.32
2023-03-21T11:20:58.650Z,12.50
2023-03-21T11:23:29.657Z,12.68
2023-03-21T11:25:58.661Z,12.18
2023-03-21T11:28:33.299Z,11.57
2023-03-21T11:31:02.972Z,11.35
2023-03-21T11:33:59.978Z,10.55
2023-03-21T11:36:33.887Z,10.25
2023-03-21T11:39:13.866Z,10.23
2023-03-21T11:41:42.996Z,10.00
2023-03-21T11:44:41.202Z,9.73
2023-03-21T11:47:11.160Z,9.35
2023-03-21T11:49:38.044Z,8.80
2023-03-21T11:52:20.995Z,9.27
2023-03-21T11:55:16.207Z,9.20
2023-03-21T11:58:00.196Z,9.07
2023-03-21T12:00:43.107Z,8.60
2023-03-21T12:03:48.690Z,8.45
2023-03-21T12:06:29.780Z,8.70
2023-03-21T12:09:08.997Z,9.18
2023-03-21T12:12:09.395Z,9.23
2023-03-21T12:14:59.113Z,9.77
2023-03-21T12:17:50.947Z,8.40
2023-03-21T12:20:39.338Z,7.70
2023-03-21T12:23:36.528Z,9.23
2023-03-21T12:26:03.382Z,8.50
2023-03-21T12:28:57.481Z,8.73
2023-03-21T12:31:31.508Z,8.70
2023-03-21T12:34:10.073Z,8.30
2023-03-21T12:36:39.967Z,8.25
2023-03-21T12:39:30.516Z,7.93
2023-03-21T12:42:09.271Z,7.50
2023-03-21T12:44:48.009Z,8.10
2023-03-21T12:47:19.861Z,7.80
2023-03-21T12:50:13.687Z,7.10
2023-03-21T12:52:43.542Z,8.13
2023-03-21T12:55:23.270Z,8.27
2023-03-21T12:57:57.747Z,7.15
2023-03-21T13:00:46.062Z,7.50
2023-03-21T13:03:30.571Z,8.00
2023-03-21T13:06:09.452Z,8.32
2023-03-21T13:08:56.869Z,9.55
2023-03-21T13:11:26.318Z,8.10
2023-03-21T13:16:42.204Z,9.10
2023-03-21T13:19:27.368Z,8.60
2023-03-21T13:22:25.713Z,9.30
2023-03-21T13:25:00.168Z,7.70
2023-03-21T13:27:36.059Z,9.02
2023-03-21T13:30:27.079Z,8.68
2023-03-21T13:35:42.515Z,8.50
2023-03-21T13:38:19.904Z,8.30
2023-03-21T13:40:56.567Z,8.38
2023-03-21T13:43:40.365Z,8.98
2023-03-21T13:46:52.252Z,8.77
2023-03-21T13:49:31.505Z,8.52
2023-03-21T13:52:01.321Z,7.90
2023-03-21T13:54:38.979Z,8.75
2023-03-21T13:57:06.863Z,8.52
2023-03-21T13:59:44.885Z,8.30
2023-03-21T14:02:31.856Z,8.75
2023-03-21T14:05:05.683Z,7.65
2023-03-21T14:07:42.539Z,8.77
2023-03-21T14:10:28.231Z,8.57
2023-03-21T14:12:55.340Z,7.53
2023-03-21T14:15:30.642Z,7.78
2023-03-21T14:18:06.397Z,7.82
2023-03-21T14:20:43.639Z,7.50
2023-03-21T14:23:16.114Z,7.72
2023-03-21T14:25:47.805Z,7.63
2023-03-21T14:28:26.170Z,7.68
2023-03-21T14:30:56.420Z,6.90
2023-03-21T14:33:27.173Z,7.20
2023-03-21T14:35:58.862Z,6.97
2023-03-21T14:38:32.287Z,6.90
2023-03-21T14:40:59.182Z,7.30
2023-03-21T14:43:27.393Z,6.75
2023-03-21T14:45:56.749Z,6.85
2023-03-21T14:51:04.771Z,6.20
2023-03-21T14:53:35.831Z,6.45
2023-03-21T14:56:22.972Z,6.53
2023-03-21T14:58:50.762Z,6.07
2023-03-21T15:01:31.198Z,6.32
2023-03-21T15:04:00.617Z,5.93
2023-03-21T15:06:27.675Z,6.32
2023-03-21T15:09:01.175Z,6.63
2023-03-21T15:11:38.093Z,5.85
2023-03-21T15:14:12.770Z,6.30
2023-03-21T15:16:40.468Z,6.45
2023-03-21T15:19:11.541Z,6.60
2023-03-21T15:21:41.653Z,7.15
2023-03-21T15:24:17.997Z,7.10
2023-03-21T15:26:49.663Z,7.05
2023-03-21T15:29:18.076Z,7.45
2023-03-21T15:31:48.298Z,6.27
2023-03-21T15:34:28.411Z,7.13
2023-03-21T15:39:29.133Z,6.80
2023-03-21T15:42:05.861Z,7.20
2023-03-21T15:44:34.639Z,7.00
2023-03-21T15:47:02.174Z,6.72
2023-03-21T15:49:32.305Z,7.25
2023-03-21T15:52:13.119Z,7.57
2023-03-21T15:54:48.101Z,7.47
2023-03-21T15:57:25.710Z,7.70
2023-03-21T16:00:19.861Z,7.28
2023-03-21T16:02:47.918Z,6.90
2023-03-21T16:05:28.930Z,6.85
2023-03-21T16:08:02.912Z,7.35
2023-03-21T16:10:31.780Z,7.78
2023-03-21T16:12:58.880Z,7.05
2023-03-21T16:15:27.165Z,7.88
2023-03-21T16:18:06.533Z,7.55
2023-03-21T16:20:41.590Z,7.68
2023-03-21T16:23:13.245Z,7.40
2023-03-21T16:25:42.080Z,7.55
2023-03-21T16:28:17.061Z,8.27
2023-03-21T16:30:44.701Z,8.23
2023-03-21T16:33:12.566Z,7.78
2023-03-21T16:35:39.842Z,7.47
2023-03-21T16:38:06.938Z,7.22
2023-03-21T16:40:42.043Z,8.13
2023-03-21T16:43:10.294Z,7.82
2023-03-21T16:45:38.119Z,8.45
2023-03-21T16:48:05.562Z,7.43
2023-03-21T16:50:37.272Z,7.18
2023-03-21T16:53:04.446Z,7.45
2023-03-21T16:55:33.618Z,7.40
2023-03-21T16:58:01.105Z,7.90
2023-03-21T17:00:30.704Z,8.35
2023-03-21T17:03:01.625Z,7.38
2023-03-21T17:05:31.132Z,8.48
2023-03-21T17:10:31.474Z,9.23
2023-03-21T17:15:25.638Z,10.80
2023-03-21T17:17:55.481Z,10.30
2023-03-21T17:20:25.851Z,11.27
2023-03-21T17:22:52.710Z,10.90
2023-03-21T17:25:20.661Z,11.93
2023-03-21T17:27:48.334Z,11.68
2023-03-21T17:30:26.181Z,11.90
2023-03-21T17:32:53.433Z,11.00
2023-03-21T17:35:23.048Z,12.57
2023-03-21T17:37:50.609Z,13.00
2023-03-21T17:40:23.588Z,12.00
2023-03-21T17:42:51.799Z,13.05
2023-03-21T17:45:19.564Z,11.05
2023-03-21T17:47:47.148Z,11.82
2023-03-21T17:50:23.278Z,12.50
2023-03-21T17:52:51.126Z,11.88
2023-03-21T17:55:21.352Z,12.40
2023-03-21T17:57:49.461Z,12.35
2023-03-21T18:00:20.909Z,12.38
2023-03-21T18:02:48.041Z,11.73
2023-03-21T18:05:15.698Z,12.98
2023-03-21T18:10:32.265Z,12.93
2023-03-21T18:13:00.235Z,11.93
2023-03-21T18:15:30.371Z,13.10
2023-03-21T18:17:58.292Z,12.80
2023-03-21T18:20:50.257Z,12.27
2023-03-21T18:23:18.648Z,11.80
2023-03-21T18:25:45.676Z,12.20
2023-03-21T18:28:13.244Z,13.70
2023-03-21T18:31:06.952Z,12.18
2023-03-21T18:33:30.066Z,12.38
2023-03-21T18:35:59.126Z,11.68
2023-03-21T18:38:27.843Z,12.60
2023-03-21T18:40:55.770Z,13.05
2023-03-21T18:46:09.807Z,12.40
2023-03-21T18:48:36.741Z,13.52
2023-03-21T18:51:04.502Z,13.07
2023-03-21T18:53:31.624Z,11.80
2023-03-21T18:55:58.615Z,12.02
2023-03-21T18:58:26.012Z,12.00
2023-03-21T19:00:53.804Z,13.07
2023-03-21T19:03:35.121Z,11.63
2023-03-21T19:06:03.945Z,12.73
2023-03-21T19:08:31.323Z,11.90
2023-03-21T19:11:03.711Z,13.30
2023-03-21T19:13:33.584Z,12.43
2023-03-21T19:16:02.556Z,12.15
2023-03-21T19:18:53.094Z,13.18
2023-03-21T19:21:18.749Z,13.00
2023-03-21T19:26:33.020Z,12.30
2023-03-21T19:28:59.989Z,13.18
2023-03-21T19:31:27.242Z,12.93
2023-03-21T19:33:54.389Z,14.13
2023-03-21T19:36:23.172Z,13.48
2023-03-21T19:38:51.238Z,13.88
2023-03-21T19:41:20.242Z,13.85
2023-03-21T19:43:54.565Z,14.27
2023-03-21T19:46:25.146Z,14.05
2023-03-21T19:48:56.318Z,14.02
2023-03-21T19:51:28.860Z,14.43
2023-03-21T19:54:01.245Z,13.55
2023-03-21T19:56:28.367Z,14.07
2023-03-21T19:58:56.177Z,14.43
2023-03-21T20:01:24.671Z,14.82
2023-03-21T20:03:52.314Z,14.13
2023-03-21T20:06:19.899Z,14.20
2023-03-21T20:09:33.934Z,14.80
2023-03-21T20:11:34.030Z,15.57
2023-03-21T20:14:03.185Z,14.63
2023-03-21T20:16:34.981Z,12.77
2023-03-21T20:19:04.575Z,14.98
2023-03-21T20:21:40.187Z,16.23
2023-03-21T20:24:13.065Z,14.63
2023-03-21T20:26:40.231Z,14.52
2023-03-21T20:29:54.994Z,14.50
2023-03-21T20:31:53.991Z,14.73
2023-03-21T20:34:21.376Z,14.55
2023-03-21T20:36:48.633Z,13.65
2023-03-21T20:39:15.711Z,13.38
2023-03-21T20:41:43.000Z,14.20
2023-03-21T20:46:57.509Z,12.55
2023-03-21T20:49:24.908Z,12.63
2023-03-21T20:54:39.310Z,12.38
2023-03-21T20:57:06.179Z,12.80
2023-03-21T20:59:33.634Z,12.93
2023-03-21T21:02:00.698Z,12.43
2023-03-21T21:04:48.265Z,12.13
2023-03-21T21:07:18.702Z,12.07
2023-03-21T21:09:46.802Z,11.25
2023-03-21T21:12:15.191Z,11.68
2023-03-21T21:14:42.779Z,12.35
2023-03-21T21:17:30.757Z,11.88
2023-03-21T21:19:57.264Z,11.75
2023-03-21T21:22:24.133Z,11.85
2023-03-21T21:24:51.332Z,12.25
2023-03-21T21:27:18.293Z,12.90
2023-03-21T21:29:47.715Z,11.98
2023-03-21T21:34:44.001Z,13.15
2023-03-21T21:37:10.867Z,12.32
2023-03-21T21:39:38.626Z,11.02
2023-03-21T21:42:06.407Z,11.98
2023-03-21T21:44:33.318Z,11.43
2023-03-21T21:47:00.392Z,12.40
2023-03-21T21:49:27.964Z,11.57
2023-03-21T21:51:56.228Z,11.18
2023-03-21T21:54:23.173Z,12.45
2023-03-21T21:56:54.092Z,10.18
2023-03-21T21:59:22.184Z,12.05
2023-03-21T22:01:51.505Z,12.05
2023-03-21T22:04:24.734Z,11.82
2023-03-21T22:06:51.971Z,11.77
2023-03-21T22:09:18.962Z,11.65
2023-03-21T22:11:45.966Z,12.10
2023-03-21T22:14:12.823Z,12.45
2023-03-21T22:16:39.864Z,12.27
2023-03-21T22:19:06.710Z,12.52
2023-03-21T22:21:33.529Z,13.57
2023-03-21T22:24:00.495Z,11.65
2023-03-21T22:26:27.289Z,13.15
2023-03-21T22:28:54.121Z,11.63
2023-03-21T22:31:22.382Z,12.13
2023-03-21T22:33:49.866Z,12.70
2023-03-21T22:36:16.696Z,11.70
2023-03-21T22:38:43.981Z,11.38
2023-03-21T22:41:10.956Z,12.05
2023-03-21T22:43:37.958Z,12.07
2023-03-21T22:46:06.110Z,12.02
2023-03-21T22:48:33.432Z,11.70
2023-03-21T22:51:00.830Z,11.48
2023-03-21T22:53:28.179Z,12.93
2023-03-21T22:55:55.421Z,12.75
2023-03-21T22:58:22.523Z,12.45
2023-03-21T23:00:49.425Z,11.82
2023-03-21T23:03:17.002Z,12.63
2023-03-21T23:05:44.991Z,12.05
2023-03-21T23:08:12.866Z,12.32
2023-03-21T23:10:43.871Z,12.45
2023-03-21T23:13:11.053Z,11.90
2023-03-21T23:15:41.820Z,12.57
2023-03-21T23:18:08.864Z,12.73
2023-03-21T23:20:36.510Z,10.98
2023-03-21T23:23:03.423Z,12.50
2023-03-21T23:25:30.458Z,12.73
2023-03-21T23:27:57.408Z,13.15
2023-03-21T23:30:24.437Z,13.23
2023-03-21T23:32:51.384Z,12.52
2023-03-21T23:35:18.519Z,12.98
2023-03-21T23:37:50.158Z,13.27
2023-03-21T23:40:17.099Z,12.20
2023-03-21T23:42:43.979Z,12.43
2023-03-21T23:45:11.302Z,11.60
2023-03-21T23:47:38.228Z,11.93
2023-03-21T23:50:07.808Z,11.65
2023-03-21T23:52:37.047Z,11.02
2023-03-21T23:55:05.738Z,12.30
2023-03-21T23:57:33.080Z,11.88
2023-03-21T23:59:59.966Z,11.23
